logo
Rechercher aéroport 
image banner adimage banner adimage banner ad
image banner ad

VTPO - Sukhothai / Sukhothai Airport

Situé à Sukhothai, Thailand

ICAO - VTPO, IATA - THS

Données fournies par Airmate  

Information générale

Coordonnées: N17°14'16" E99°49'6"
Élévation : 179 feet MSL.
 
Voir autres Aéroports à Sukhothai Province

Données opérationnelles

Special qualification required
Heure actuelle UTC:
Heure actuelle locale:
Météo
TAF: TAF VTPO 281100Z 2812/2912 16005KT 7000 FEW030 BECMG 2821/2823 00000KT 4000 BR BECMG 2904/2906 15005KT 8000 NSW
Voir NOTAMs / SUP AIP / TFR affectant cet aéroport [VIEW]
Fréquences de communication: [VIEW]

Pistes:

Identifiant RWYQFULongueur (ft)Largeur (ft)SurfaceLDA (ft)
18180°6890148ASP
366890148ASP

Coordonnées de l'aéroport

Adresse: Sukhothai Thailand

Vue satellite de VTPO